Time;durP1;ratioP1;P1;durP2;ratioP2;P2;SDS_P1;SDS_P2;PMS_P1;PMS_P2;Temp;Humidity;BMP_temperature;BMP_pressure;BME280_temperature;BME280_humidity;BME280_pressure;Samples;Min_cycle;Max_cycle;Signal;HPM_P1;HPM_P2
2022/07/22 00:00:19;;;;;;;;;;;;;;;17.85;71.83;101680.97;4991500;28;19925;-77
2022/07/22 00:02:44;;;;;;;;;;;;;;;17.97;71.89;101672.63;4985081;28;19917;-77
2022/07/22 00:05:10;;;;;;;;;;;;;;;17.88;71.86;101674.72;4987562;28;19929;-77
2022/07/22 00:07:36;;;;;;;;;;;;;;;17.82;71.76;101675.81;4989165;28;20431;-77
2022/07/22 00:10:03;;;;;;;;;;;;;;;17.87;71.70;101676.50;4987490;28;19937;-77
2022/07/22 00:12:28;;;;;;;;;;;;;;;17.91;71.97;101669.34;4989258;28;19968;-77
2022/07/22 00:14:53;;;;;;;;;;;;;;;17.88;72.27;101672.97;4987715;28;20324;-77
2022/07/22 00:17:18;;;;;;;;;;;;;;;17.89;71.97;101673.78;4989544;28;20009;-77
2022/07/22 00:19:44;;;;;;;;;;;;;;;17.79;72.07;101668.03;5004888;28;19928;-77
2022/07/22 00:22:09;;;;;;;;;;;;;;;17.86;71.48;101672.13;5010556;28;20397;-77
2022/07/22 00:24:37;;;;;;;;;;;;;;;17.85;71.74;101666.94;5008126;28;19926;-76
2022/07/22 00:27:02;;;;;;;;;;;;;;;17.72;72.42;101669.16;5008377;28;19925;-76
2022/07/22 00:29:28;;;;;;;;;;;;;;;17.86;71.87;101664.25;5008889;28;19918;-76
2022/07/22 00:31:53;;;;;;;;;;;;;;;17.87;71.45;101662.47;5009979;28;19929;-76
2022/07/22 00:34:18;;;;;;;;;;;;;;;17.87;71.90;101667.75;5010056;28;19929;-75
2022/07/22 00:36:44;;;;;;;;;;;;;;;17.74;72.00;101667.31;5008179;28;20296;-76
2022/07/22 00:39:09;;;;;;;;;;;;;;;17.82;72.33;101662.66;5008696;28;20032;-76
2022/07/22 00:41:34;;;;;;;;;;;;;;;17.79;71.53;101661.91;5008438;28;19957;-76
2022/07/22 00:44:05;;;;;;;;;;;;;;;17.84;72.39;101666.09;5008478;28;19929;-75
2022/07/22 00:46:31;;;;;;;;;;;;;;;17.80;72.49;101661.84;5009760;28;19921;-76
2022/07/22 00:48:57;;;;;;;;;;;;;;;17.92;72.23;101656.13;5004556;28;19929;-76
2022/07/22 00:51:22;;;;;;;;;;;;;;;17.82;71.68;101657.41;5013470;28;19921;-76
2022/07/22 00:53:48;;;;;;;;;;;;;;;17.71;72.17;101662.19;5007871;28;19921;-76
2022/07/22 00:56:14;;;;;;;;;;;;;;;17.53;72.08;101657.59;5008969;28;19925;-76
2022/07/22 00:58:40;;;;;;;;;;;;;;;17.63;71.40;101658.97;5008129;28;20300;-76
2022/07/22 01:01:05;;;;;;;;;;;;;;;17.59;70.47;101654.75;5005505;28;19921;-77
2022/07/22 01:03:30;;;;;;;;;;;;;;;17.54;70.76;101651.41;5009321;28;20012;-77
2022/07/22 01:05:56;;;;;;;;;;;;;;;17.57;70.70;101651.28;5006056;28;20384;-77
2022/07/22 01:08:21;;;;;;;;;;;;;;;17.41;70.73;101647.50;5008177;28;19925;-76
2022/07/22 01:10:46;;;;;;;;;;;;;;;17.61;70.16;101639.78;5006005;28;19984;-76
2022/07/22 01:13:12;;;;;;;;;;;;;;;17.63;70.87;101645.84;5008313;28;20304;-76
2022/07/22 01:15:40;;;;;;;;;;;;;;;17.58;70.55;101643.38;5007908;28;19922;-76
2022/07/22 01:18:05;;;;;;;;;;;;;;;17.52;70.44;101642.72;5007047;28;19964;-76
2022/07/22 01:20:31;;;;;;;;;;;;;;;17.37;70.90;101645.88;5008734;28;20003;-76
2022/07/22 01:22:56;;;;;;;;;;;;;;;17.42;71.06;101651.81;5008514;28;19925;-75
2022/07/22 01:25:22;;;;;;;;;;;;;;;17.52;71.06;101653.22;5007726;28;19984;-75
2022/07/22 01:27:47;;;;;;;;;;;;;;;17.58;70.31;101650.38;5006854;28;19929;-76
2022/07/22 01:30:12;;;;;;;;;;;;;;;17.59;69.80;101645.09;5004342;28;20345;-75
2022/07/22 01:32:38;;;;;;;;;;;;;;;17.64;70.39;101638.81;4996916;28;19926;-76
2022/07/22 01:35:04;;;;;;;;;;;;;;;17.56;70.58;101646.97;5003440;28;20457;-77
2022/07/22 01:37:29;;;;;;;;;;;;;;;17.49;71.44;101646.31;5004914;28;19959;-78
2022/07/22 01:39:55;;;;;;;;;;;;;;;17.52;70.52;101640.97;5005073;28;19956;-78
2022/07/22 01:42:20;;;;;;;;;;;;;;;17.52;70.32;101640.09;5008673;28;20025;-80
2022/07/22 01:44:45;;;;;;;;;;;;;;;17.54;70.21;101646.13;5006477;28;20407;-80
2022/07/22 01:47:11;;;;;;;;;;;;;;;17.48;70.58;101641.09;5004054;28;19922;-80
2022/07/22 01:49:36;;;;;;;;;;;;;;;17.57;71.15;101644.25;5007699;28;19960;-80
2022/07/22 01:52:03;;;;;;;;;;;;;;;17.65;70.11;101645.81;5009044;28;19986;-80
2022/07/22 01:54:28;;;;;;;;;;;;;;;17.57;70.49;101635.53;5004512;28;19983;-80
2022/07/22 01:56:53;;;;;;;;;;;;;;;17.54;70.59;101636.50;5006824;28;19956;-77
2022/07/22 01:59:19;;;;;;;;;;;;;;;17.59;70.54;101638.97;5004988;28;20020;-77
2022/07/22 02:01:44;;;;;;;;;;;;;;;17.54;70.43;101643.50;5004673;28;20032;-77
2022/07/22 02:04:09;;;;;;;;;;;;;;;17.50;70.85;101642.75;5006186;28;19961;-77
2022/07/22 02:06:35;;;;;;;;;;;;;;;17.56;71.15;101644.34;5008549;28;20339;-77
2022/07/22 02:09:00;;;;;;;;;;;;;;;17.68;70.42;101641.28;5004299;28;19934;-77
2022/07/22 02:11:25;;;;;;;;;;;;;;;17.65;70.29;101633.50;5005783;28;19922;-80
2022/07/22 02:13:51;;;;;;;;;;;;;;;17.65;70.02;101630.03;5010700;28;20012;-80
2022/07/22 02:16:16;;;;;;;;;;;;;;;17.58;69.67;101635.47;5006647;28;19926;-80
2022/07/22 02:18:41;;;;;;;;;;;;;;;17.56;70.37;101632.03;5009022;28;19968;-79
2022/07/22 02:21:07;;;;;;;;;;;;;;;17.69;69.66;101634.25;5006666;28;19921;-80
2022/07/22 02:23:32;;;;;;;;;;;;;;;17.67;69.95;101636.09;5007058;28;19922;-80
2022/07/22 02:25:57;;;;;;;;;;;;;;;17.57;69.81;101639.00;5004563;28;19928;-80
2022/07/22 02:28:23;;;;;;;;;;;;;;;17.61;68.79;101639.78;5003131;28;19925;-77
2022/07/22 02:30:48;;;;;;;;;;;;;;;17.65;69.48;101638.75;5006946;28;19975;-77
2022/07/22 02:33:14;;;;;;;;;;;;;;;17.61;69.78;101639.78;5007065;28;19974;-77
2022/07/22 02:35:39;;;;;;;;;;;;;;;17.55;70.39;101639.97;4997823;28;19967;-77
2022/07/22 02:38:05;;;;;;;;;;;;;;;17.56;70.21;101634.66;5005636;28;20028;-77
2022/07/22 02:40:30;;;;;;;;;;;;;;;17.65;69.61;101646.63;5005099;28;19929;-77
2022/07/22 02:42:55;;;;;;;;;;;;;;;17.59;69.89;101638.97;5004107;28;19922;-77
2022/07/22 02:45:21;;;;;;;;;;;;;;;17.50;70.04;101636.69;5006710;28;19925;-77
2022/07/22 02:47:50;;;;;;;;;;;;;;;17.58;69.84;101635.47;5004697;28;19918;-77
2022/07/22 02:50:16;;;;;;;;;;;;;;;17.59;70.17;101634.59;5006104;28;20921;-80
2022/07/22 02:52:41;;;;;;;;;;;;;;;17.60;70.45;101636.31;5005243;28;20032;-76
2022/07/22 02:55:07;;;;;;;;;;;;;;;17.59;69.63;101637.22;5005408;28;20426;-76
2022/07/22 02:57:32;;;;;;;;;;;;;;;17.71;69.79;101641.16;4998484;28;19927;-76
2022/07/22 02:59:57;;;;;;;;;;;;;;;17.51;69.61;101631.34;5015333;28;20274;-80
2022/07/22 03:02:22;;;;;;;;;;;;;;;17.59;69.72;101636.34;5006053;28;19933;-80
2022/07/22 03:04:48;;;;;;;;;;;;;;;17.54;69.81;101633.00;5005706;28;19922;-80
2022/07/22 03:07:13;;;;;;;;;;;;;;;17.62;69.38;101638.88;5006182;28;19928;-75
2022/07/22 03:09:38;;;;;;;;;;;;;;;17.60;69.29;101632.81;5006423;28;19921;-75
2022/07/22 03:12:04;;;;;;;;;;;;;;;17.65;69.06;101644.00;5003644;28;19944;-78
2022/07/22 03:14:29;;;;;;;;;;;;;;;17.47;69.40;101639.41;5005032;28;19922;-76
2022/07/22 03:16:54;;;;;;;;;;;;;;;17.59;69.43;101636.34;5005723;28;19921;-76
2022/07/22 03:19:20;;;;;;;;;;;;;;;17.65;68.92;101638.75;5001654;28;20431;-76
2022/07/22 03:21:45;;;;;;;;;;;;;;;17.60;69.20;101635.44;5006845;28;19968;-77
2022/07/22 03:24:10;;;;;;;;;;;;;;;17.57;69.23;101636.38;5007229;28;19925;-77
2022/07/22 03:26:35;;;;;;;;;;;;;;;17.61;69.17;101639.78;5003981;28;19929;-80
2022/07/22 03:29:01;;;;;;;;;;;;;;;17.53;69.69;101637.41;5003048;28;19923;-79
2022/07/22 03:31:27;;;;;;;;;;;;;;;17.57;69.88;101632.91;5007667;28;19984;-76
2022/07/22 03:33:52;;;;;;;;;;;;;;;17.57;69.17;101632.91;5000841;28;19968;-76
2022/07/22 03:36:17;;;;;;;;;;;;;;;17.55;69.53;101632.09;5003756;28;20024;-77
2022/07/22 03:38:43;;;;;;;;;;;;;;;17.54;69.30;101635.63;5008023;28;19972;-76
2022/07/22 03:41:08;;;;;;;;;;;;;;;17.57;68.87;101630.28;5002852;28;19922;-75
2022/07/22 03:43:33;;;;;;;;;;;;;;;17.57;69.81;101635.53;5007194;28;19933;-76
2022/07/22 03:45:59;;;;;;;;;;;;;;;17.60;69.82;101632.81;5004839;28;19922;-76
2022/07/22 03:48:24;;;;;;;;;;;;;;;17.64;69.59;101626.56;5006389;28;20214;-78
2022/07/22 03:50:51;;;;;;;;;;;;;;;17.66;69.36;101629.97;4985531;28;20448;-78
2022/07/22 03:53:16;;;;;;;;;;;;;;;17.56;69.80;101631.19;4989670;28;20308;-78
2022/07/22 03:55:42;;;;;;;;;;;;;;;17.57;69.74;101632.91;4993375;28;19930;-79
2022/07/22 03:58:08;;;;;;;;;;;;;;;17.65;69.96;101633.50;4998008;28;19980;-77
2022/07/22 04:00:33;;;;;;;;;;;;;;;17.50;69.74;101628.78;5006957;28;20052;-77
2022/07/22 04:02:58;;;;;;;;;;;;;;;17.45;69.86;101631.56;5013084;28;19921;-76
2022/07/22 04:05:24;;;;;;;;;;;;;;;17.52;70.16;101627.81;5006754;28;19934;-76
2022/07/22 04:07:49;;;;;;;;;;;;;;;17.57;70.55;101619.75;4992747;28;19975;-77
2022/07/22 04:10:14;;;;;;;;;;;;;;;17.59;70.76;101624.06;4998982;28;20009;-79
2022/07/22 04:12:40;;;;;;;;;;;;;;;17.58;70.87;101626.75;5002578;28;19960;-76
2022/07/22 04:15:08;;;;;;;;;;;;;;;17.64;69.91;101625.69;5009135;28;19924;-76
2022/07/22 04:17:33;;;;;;;;;;;;;;;17.62;69.44;101625.72;5009115;28;19929;-76
2022/07/22 04:20:00;;;;;;;;;;;;;;;17.54;69.34;101630.38;5005923;28;20519;-76
2022/07/22 04:22:26;;;;;;;;;;;;;;;17.57;69.22;101623.25;5006483;28;20024;-79
2022/07/22 04:24:51;;;;;;;;;;;;;;;17.53;69.98;101624.25;5006662;28;20547;-79
2022/07/22 04:27:16;;;;;;;;;;;;;;;17.58;69.29;101629.38;5004627;28;19929;-79
2022/07/22 04:29:42;;;;;;;;;;;;;;;17.55;69.00;101625.09;5008344;28;19910;-79
2022/07/22 04:32:07;;;;;;;;;;;;;;;17.59;68.82;101624.06;5006490;28;19936;-77
2022/07/22 04:34:32;;;;;;;;;;;;;;;17.61;69.37;101613.53;5004180;28;20292;-77
2022/07/22 04:36:57;;;;;;;;;;;;;;;17.58;69.66;101624.13;5008720;28;19945;-77
2022/07/22 04:39:23;;;;;;;;;;;;;;;17.64;69.32;101618.66;5006958;28;19937;-76
2022/07/22 04:41:48;;;;;;;;;;;;;;;17.60;69.11;101624.94;5010663;28;19921;-77
2022/07/22 04:44:13;;;;;;;;;;;;;;;17.53;69.49;101628.69;5009444;28;19991;-77
2022/07/22 04:46:39;;;;;;;;;;;;;;;17.58;69.51;101627.59;5008854;28;19922;-77
2022/07/22 04:49:04;;;;;;;;;;;;;;;17.63;69.40;101626.59;5007084;28;19922;-77
2022/07/22 04:51:29;;;;;;;;;;;;;;;17.55;69.81;101634.72;5007864;28;20011;-77
2022/07/22 04:53:55;;;;;;;;;;;;;;;17.58;69.76;101635.47;5009546;28;20395;-77
2022/07/22 04:56:20;;;;;;;;;;;;;;;17.63;69.56;101629.22;5009232;28;19922;-77
2022/07/22 04:58:46;;;;;;;;;;;;;;;17.65;69.69;101632.66;5005625;28;20308;-77
2022/07/22 05:01:11;;;;;;;;;;;;;;;17.66;69.38;101631.72;5004208;28;19928;-76
2022/07/22 05:03:40;;;;;;;;;;;;;;;17.56;69.79;101639.09;5008104;28;19929;-76
2022/07/22 05:06:05;;;;;;;;;;;;;;;17.52;70.18;101635.69;5007758;28;20377;-76
2022/07/22 05:08:31;;;;;;;;;;;;;;;17.56;69.78;101645.16;5005213;28;19929;-76
2022/07/22 05:10:56;;;;;;;;;;;;;;;17.51;69.37;101638.38;5003002;28;19922;-77
2022/07/22 05:13:21;;;;;;;;;;;;;;;17.60;69.54;101643.31;5015172;28;19924;-79
2022/07/22 05:15:46;;;;;;;;;;;;;;;17.53;69.12;101640.03;5009382;28;20291;-79
2022/07/22 05:18:12;;;;;;;;;;;;;;;17.58;69.41;101637.25;5011606;28;19925;-79
2022/07/22 05:20:37;;;;;;;;;;;;;;;17.62;69.35;101641.50;5009007;28;19923;-78
2022/07/22 05:23:02;;;;;;;;;;;;;;;17.61;70.07;101639.78;5007494;28;19929;-78
2022/07/22 05:25:28;;;;;;;;;;;;;;;17.55;70.20;101635.59;5009714;28;19976;-78
2022/07/22 05:27:54;;;;;;;;;;;;;;;17.66;69.61;101629.09;5005374;28;20436;-77
2022/07/22 05:30:19;;;;;;;;;;;;;;;17.51;69.69;101636.59;5006364;28;19922;-76
2022/07/22 05:32:45;;;;;;;;;;;;;;;17.68;70.04;101629.94;5008072;28;19940;-77
2022/07/22 05:35:10;;;;;;;;;;;;;;;17.67;69.60;101633.47;5007875;28;19952;-76
2022/07/22 05:37:36;;;;;;;;;;;;;;;17.65;70.18;101633.50;5004970;28;19933;-76
2022/07/22 05:40:01;;;;;;;;;;;;;;;17.62;70.49;101630.16;5006509;28;19921;-76
2022/07/22 05:42:27;;;;;;;;;;;;;;;17.63;69.51;101631.84;5005966;28;20461;-76
2022/07/22 05:44:52;;;;;;;;;;;;;;;17.68;70.11;101624.66;5006699;28;20012;-77
2022/07/22 05:47:17;;;;;;;;;;;;;;;17.55;69.36;101629.47;5001241;28;20415;-77
2022/07/22 05:49:43;;;;;;;;;;;;;;;17.60;70.32;101635.44;5004545;28;19921;-79
2022/07/22 05:52:08;;;;;;;;;;;;;;;17.63;69.61;101622.19;5002033;28;19936;-78
2022/07/22 05:54:33;;;;;;;;;;;;;;;17.48;69.93;101627.97;5005213;28;19928;-78
2022/07/22 05:56:58;;;;;;;;;;;;;;;17.60;69.42;101619.69;5006427;28;19936;-76
2022/07/22 05:59:24;;;;;;;;;;;;;;;17.60;69.49;101619.69;5005159;28;19937;-76
2022/07/22 06:01:49;;;;;;;;;;;;;;;17.61;69.66;101621.41;5002142;28;19922;-80
2022/07/22 06:04:14;;;;;;;;;;;;;;;17.66;69.04;101619.47;5003926;28;20400;-76
2022/07/22 06:06:40;;;;;;;;;;;;;;;17.63;69.77;101622.19;5006377;28;20420;-77
2022/07/22 06:09:05;;;;;;;;;;;;;;;17.67;69.65;101618.56;5004090;28;19971;-77
2022/07/22 06:11:30;;;;;;;;;;;;;;;17.63;69.84;101621.34;5012344;28;19937;-77
2022/07/22 06:13:56;;;;;;;;;;;;;;;17.65;70.32;101616.91;5003416;28;19918;-77
2022/07/22 06:16:21;;;;;;;;;;;;;;;17.65;69.91;101617.72;5007525;28;19928;-78
2022/07/22 06:18:46;;;;;;;;;;;;;;;17.64;69.44;101613.41;5004720;28;20368;-78
2022/07/22 06:21:12;;;;;;;;;;;;;;;17.78;69.34;101624.25;5006107;28;20458;-78
2022/07/22 06:23:37;;;;;;;;;;;;;;;17.74;69.55;101613.94;5009192;28;19913;-79
2022/07/22 06:26:03;;;;;;;;;;;;;;;17.67;70.32;101617.69;5006537;28;19928;-78
2022/07/22 06:28:29;;;;;;;;;;;;;;;17.65;68.91;101620.34;5005172;28;20405;-78
2022/07/22 06:30:54;;;;;;;;;;;;;;;17.81;68.87;101621.53;5001644;28;19925;-78
2022/07/22 06:33:20;;;;;;;;;;;;;;;17.77;68.62;101619.91;5004947;28;20346;-77
2022/07/22 06:35:45;;;;;;;;;;;;;;;17.76;68.81;101619.97;5012345;28;20376;-77
2022/07/22 06:38:11;;;;;;;;;;;;;;;17.80;68.59;101622.41;5002500;28;20457;-77
2022/07/22 06:40:36;;;;;;;;;;;;;;;17.81;68.44;101624.16;5003979;28;20478;-78
2022/07/22 06:43:02;;;;;;;;;;;;;;;17.76;68.61;101615.59;5007625;28;20000;-77
2022/07/22 06:45:31;;;;;;;;;;;;;;;17.70;68.90;101621.06;5005164;28;20008;-78
2022/07/22 06:47:56;;;;;;;;;;;;;;;17.81;68.65;101610.16;5004714;28;19917;-79
2022/07/22 06:50:21;;;;;;;;;;;;;;;17.82;68.40;101607.47;5000711;28;20415;-79
2022/07/22 06:52:48;;;;;;;;;;;;;;;17.72;67.96;101605.22;5017233;28;19953;-79
2022/07/22 06:55:15;;;;;;;;;;;;;;;17.80;68.98;101606.66;5005172;28;19921;-79
2022/07/22 06:57:40;;;;;;;;;;;;;;;17.77;68.24;101606.78;5007199;28;19928;-79
2022/07/22 07:00:07;;;;;;;;;;;;;;;17.77;69.05;101612.03;5004418;28;20292;-79
2022/07/22 07:02:32;;;;;;;;;;;;;;;17.79;68.09;101604.97;5003283;28;19930;-79
2022/07/22 07:04:58;;;;;;;;;;;;;;;17.72;68.67;101608.72;5004628;28;19925;-79
2022/07/22 07:07:23;;;;;;;;;;;;;;;17.74;69.09;101604.25;5006257;28;20425;-78
2022/07/22 07:09:48;;;;;;;;;;;;;;;17.80;69.03;101598.78;5006707;28;19921;-77
2022/07/22 07:12:13;;;;;;;;;;;;;;;17.75;69.81;101610.38;5006401;28;19933;-78
2022/07/22 07:14:39;;;;;;;;;;;;;;;17.86;68.38;101610.81;5006553;28;19914;-78
2022/07/22 07:17:04;;;;;;;;;;;;;;;17.80;68.44;101606.66;5013696;28;20395;-78
2022/07/22 07:19:29;;;;;;;;;;;;;;;17.80;68.82;101611.09;5009483;28;20115;-78
2022/07/22 07:21:55;;;;;;;;;;;;;;;17.84;69.27;101605.63;5013292;28;19917;-78
2022/07/22 07:24:20;;;;;;;;;;;;;;;17.80;68.94;101613.72;5009103;28;20020;-77
2022/07/22 07:26:45;;;;;;;;;;;;;;;17.81;69.57;101611.00;5008109;28;19917;-78
2022/07/22 07:29:10;;;;;;;;;;;;;;;17.75;70.00;101611.22;5007260;28;19922;-79
2022/07/22 07:31:36;;;;;;;;;;;;;;;17.81;69.31;101603.13;5009300;28;19995;-77
2022/07/22 07:34:01;;;;;;;;;;;;;;;17.88;69.22;101603.75;5011231;28;19976;-77
2022/07/22 07:36:26;;;;;;;;;;;;;;;17.85;69.42;101604.72;5011858;28;19921;-76
2022/07/22 07:38:52;;;;;;;;;;;;;;;17.80;70.38;101604.03;5008241;28;19925;-77
2022/07/22 07:41:17;;;;;;;;;;;;;;;17.81;70.42;101600.50;5013774;28;19921;-77
2022/07/22 07:43:43;;;;;;;;;;;;;;;17.90;70.17;101601.91;5012562;28;19921;-78
2022/07/22 07:46:08;;;;;;;;;;;;;;;17.79;70.57;101598.84;5008524;28;19975;-79
2022/07/22 07:48:34;;;;;;;;;;;;;;;17.84;70.62;101603.00;5004128;28;19922;-79
2022/07/22 07:50:59;;;;;;;;;;;;;;;17.87;70.34;101597.63;5007294;28;19917;-79
2022/07/22 07:53:24;;;;;;;;;;;;;;;17.83;70.27;101598.66;5006711;28;19930;-79
2022/07/22 07:55:49;;;;;;;;;;;;;;;17.86;70.95;101598.53;4993191;28;20013;-78
2022/07/22 07:58:15;;;;;;;;;;;;;;;17.85;70.54;101604.72;4984223;28;19965;-77
2022/07/22 08:00:42;;;;;;;;;;;;;;;17.84;70.31;101602.16;4988220;28;20005;-77
2022/07/22 08:03:08;;;;;;;;;;;;;;;17.86;69.35;101600.31;4992688;28;19925;-77
2022/07/22 08:05:33;;;;;;;;;;;;;;;17.87;70.19;101605.53;4992646;28;20385;-76
2022/07/22 08:07:59;;;;;;;;;;;;;;;17.87;69.89;101596.78;4987215;28;20013;-77
2022/07/22 08:10:24;;;;;;;;;;;;;;;17.88;70.41;101603.75;5000324;28;20020;-77
2022/07/22 08:12:50;;;;;;;;;;;;;;;17.91;70.66;101601.88;5009022;28;19929;-77
2022/07/22 08:15:16;;;;;;;;;;;;;;;17.90;70.17;101600.16;5010111;28;19925;-77
2022/07/22 08:17:41;;;;;;;;;;;;;;;17.96;70.70;101604.31;5011483;28;20004;-77
2022/07/22 08:20:07;;;;;;;;;;;;;;;18.04;69.21;101605.72;5009897;28;20012;-77
2022/07/22 08:22:33;;;;;;;;;;;;;;;18.00;69.05;101604.16;5013947;28;19925;-77
2022/07/22 08:24:58;;;;;;;;;;;;;;;18.04;68.33;101602.22;5009615;28;20411;-77
2022/07/22 08:27:24;;;;;;;;;;;;;;;18.02;69.25;101597.06;5008556;28;19922;-77
2022/07/22 08:29:49;;;;;;;;;;;;;;;18.03;68.86;101596.16;5010976;28;19921;-79
2022/07/22 08:32:15;;;;;;;;;;;;;;;18.11;68.85;101596.69;5008655;28;19924;-80
2022/07/22 08:34:40;;;;;;;;;;;;;;;18.13;68.51;101594.00;5007739;28;20665;-80
2022/07/22 08:37:05;;;;;;;;;;;;;;;18.21;69.02;101591.06;4999518;28;19944;-80
2022/07/22 08:39:31;;;;;;;;;;;;;;;18.25;67.98;101582.13;4985048;28;19926;-79
2022/07/22 08:41:57;;;;;;;;;;;;;;;18.15;67.31;101589.56;4990259;28;19917;-79
2022/07/22 08:44:22;;;;;;;;;;;;;;;18.13;67.77;101581.69;4987563;28;19921;-79
2022/07/22 08:46:48;;;;;;;;;;;;;;;18.12;67.84;101595.75;4986351;28;19922;-79
2022/07/22 08:49:14;;;;;;;;;;;;;;;18.21;66.97;101596.34;4998726;28;19929;-79
2022/07/22 08:51:40;;;;;;;;;;;;;;;18.18;67.22;101592.06;5009143;28;19936;-79
2022/07/22 08:54:05;;;;;;;;;;;;;;;18.15;67.55;101590.38;5007057;28;19922;-79
2022/07/22 08:56:30;;;;;;;;;;;;;;;18.27;66.89;101586.44;5008522;28;19921;-79
2022/07/22 08:58:56;;;;;;;;;;;;;;;18.31;67.11;101588.00;5008556;28;20019;-79
2022/07/22 09:01:21;;;;;;;;;;;;;;;18.38;66.69;101589.47;4996579;28;19928;-79
2022/07/22 09:03:49;;;;;;;;;;;;;;;18.32;66.83;101578.34;4988657;28;20360;-78
2022/07/22 09:06:15;;;;;;;;;;;;;;;18.32;66.87;101580.97;4985669;28;19928;-79
2022/07/22 09:08:55;;;;;;;;;;;;;;;18.40;66.44;101579.75;5014648;28;19921;-79
2022/07/22 09:11:21;;;;;;;;;;;;;;;18.46;66.36;101591.81;5001115;28;19922;-78
2022/07/22 09:13:47;;;;;;;;;;;;;;;18.38;66.23;101586.84;5007700;28;19925;-79
2022/07/22 09:16:12;;;;;;;;;;;;;;;18.33;66.35;101588.81;5003565;28;19921;-79
2022/07/22 09:18:44;;;;;;;;;;;;;;;18.41;65.08;101586.72;4999628;28;19949;-78
2022/07/22 09:21:11;;;;;;;;;;;;;;;18.38;66.55;101581.59;4982769;28;19922;-79
2022/07/22 09:23:41;;;;;;;;;;;;;;;18.32;65.66;101580.97;5007084;28;20404;-79
2022/07/22 09:26:06;;;;;;;;;;;;;;;18.42;65.44;101577.06;5002290;28;19960;-79
2022/07/22 09:28:31;;;;;;;;;;;;;;;18.47;65.49;101581.25;5007273;28;19972;-79
2022/07/22 09:30:57;;;;;;;;;;;;;;;18.47;65.81;101578.63;5009117;28;19925;-79
2022/07/22 09:33:22;;;;;;;;;;;;;;;18.56;65.59;101580.88;5001212;28;20483;-79
2022/07/22 09:35:48;;;;;;;;;;;;;;;18.59;65.62;101579.88;5004593;28;20033;-79
2022/07/22 09:38:14;;;;;;;;;;;;;;;18.57;65.01;101576.47;4989570;28;19932;-79
2022/07/22 09:40:41;;;;;;;;;;;;;;;18.55;65.48;101573.91;5004980;28;19930;-79
2022/07/22 09:43:11;;;;;;;;;;;;;;;18.60;65.33;101565.81;5002671;28;19921;-79
2022/07/22 09:45:43;;;;;;;;;;;;;;;18.62;66.19;101567.47;5007339;28;20008;-79
2022/07/22 09:48:09;;;;;;;;;;;;;;;18.68;66.11;101575.09;5005474;28;19917;-79
2022/07/22 09:50:34;;;;;;;;;;;;;;;18.79;65.76;101579.91;5015755;28;19925;-79
2022/07/22 09:53:00;;;;;;;;;;;;;;;18.64;64.38;101573.50;5004806;28;20020;-79
2022/07/22 09:55:26;;;;;;;;;;;;;;;18.73;65.08;101571.41;5001186;28;20571;-78
2022/07/22 09:57:52;;;;;;;;;;;;;;;18.76;65.40;101580.03;5004407;28;19933;-80
2022/07/22 10:00:20;;;;;;;;;;;;;;;18.82;65.81;101576.28;5005717;28;19922;-80
2022/07/22 10:02:47;;;;;;;;;;;;;;;18.85;64.23;101574.38;5004038;28;19971;-80
2022/07/22 10:05:14;;;;;;;;;;;;;;;18.78;63.99;101561.56;5004144;28;20261;-77
2022/07/22 10:07:40;;;;;;;;;;;;;;;18.70;65.31;101564.50;5003223;28;19976;-80
2022/07/22 10:10:06;;;;;;;;;;;;;;;18.80;65.17;101562.34;5005593;28;19921;-80
2022/07/22 10:12:35;;;;;;;;;;;;;;;18.82;65.56;101560.50;5004796;28;19944;-80
2022/07/22 10:15:01;;;;;;;;;;;;;;;18.86;65.06;101560.31;5006491;28;19929;-80
2022/07/22 10:17:26;;;;;;;;;;;;;;;18.89;65.46;101547.03;5006982;28;20458;-80
2022/07/22 10:19:52;;;;;;;;;;;;;;;18.94;65.58;101550.31;5007974;28;20270;-80
2022/07/22 10:22:36;;;;;;;;;;;;;;;18.97;65.65;101549.31;5007288;28;19972;-80
2022/07/22 10:25:01;;;;;;;;;;;;;;;18.99;65.24;101543.03;5005644;28;20022;-80
2022/07/22 10:27:43;;;;;;;;;;;;;;;18.97;64.83;101531.75;5003466;28;20009;-80
2022/07/22 10:30:09;;;;;;;;;;;;;;;18.98;64.82;101529.97;5005990;28;19996;-80
2022/07/22 10:32:34;;;;;;;;;;;;;;;18.94;65.04;101531.00;5008475;28;20009;-80
2022/07/22 10:35:06;;;;;;;;;;;;;;;19.03;63.68;101530.59;5004258;28;19991;-80
2022/07/22 10:37:34;;;;;;;;;;;;;;;18.96;64.13;101524.75;5006714;28;19921;-80
2022/07/22 10:40:13;;;;;;;;;;;;;;;18.95;63.84;101523.06;5014570;28;19972;-80
2022/07/22 10:43:00;;;;;;;;;;;;;;;18.97;62.79;101522.97;5008937;28;19929;-80
2022/07/22 10:45:26;;;;;;;;;;;;;;;19.04;62.45;101533.19;5009987;28;20774;-79
2022/07/22 10:47:52;;;;;;;;;;;;;;;19.05;62.26;101526.97;5009243;28;19924;-77
2022/07/22 10:50:38;;;;;;;;;;;;;;;19.09;62.26;101523.31;5011789;28;19959;-76
2022/07/22 10:53:05;;;;;;;;;;;;;;;19.14;62.82;101525.72;5004737;28;19921;-77
2022/07/22 10:55:30;;;;;;;;;;;;;;;19.22;63.75;101524.44;5011163;28;20399;-77
2022/07/22 10:57:55;;;;;;;;;;;;;;;19.18;64.24;101525.53;5011879;28;20326;-79
2022/07/22 11:00:21;;;;;;;;;;;;;;;19.18;64.47;101519.41;5005771;28;19922;-79
2022/07/22 11:02:46;;;;;;;;;;;;;;;19.19;64.11;101516.69;4988136;28;19922;-79
2022/07/22 11:05:12;;;;;;;;;;;;;;;19.17;63.04;101520.31;5004667;28;19922;-79
2022/07/22 11:07:41;;;;;;;;;;;;;;;19.18;62.95;101525.53;4993059;28;19928;-79
2022/07/22 11:10:14;;;;;;;;;;;;;;;19.19;62.96;101526.38;4992659;28;19921;-78
2022/07/22 11:12:40;;;;;;;;;;;;;;;19.22;61.59;101523.63;4992673;28;19928;-78
2022/07/22 11:15:08;;;;;;;;;;;;;;;19.19;62.79;101521.94;4988070;28;19918;-78
2022/07/22 11:17:37;;;;;;;;;;;;;;;19.20;63.34;101515.75;4993774;28;20364;-77
2022/07/22 11:20:13;;;;;;;;;;;;;;;19.23;63.73;101514.78;5002778;28;19941;-78
2022/07/22 11:22:38;;;;;;;;;;;;;;;19.26;63.41;101519.91;4993924;28;20316;-79
2022/07/22 11:25:05;;;;;;;;;;;;;;;19.29;62.71;101511.88;4992784;28;19932;-79
2022/07/22 11:27:31;;;;;;;;;;;;;;;19.34;62.58;101514.34;4989036;28;20348;-80
2022/07/22 11:29:57;;;;;;;;;;;;;;;19.32;62.25;101508.25;4990258;28;19926;-79
2022/07/22 11:32:24;;;;;;;;;;;;;;;19.32;62.69;101509.13;4992125;28;19922;-79
2022/07/22 11:34:50;;;;;;;;;;;;;;;19.29;62.17;101506.63;4990545;28;19929;-79
2022/07/22 11:37:16;;;;;;;;;;;;;;;19.21;61.66;101512.22;4987329;28;20427;-79
2022/07/22 11:39:41;;;;;;;;;;;;;;;19.22;61.90;101506.00;5006406;28;19980;-79
2022/07/22 11:42:07;;;;;;;;;;;;;;;19.22;61.32;101502.53;4984535;28;19922;-79
2022/07/22 11:44:33;;;;;;;;;;;;;;;19.28;61.51;101501.41;4985244;28;19924;-79
2022/07/22 11:46:59;;;;;;;;;;;;;;;19.39;61.92;101491.25;5005069;28;19946;-79
2022/07/22 11:49:30;;;;;;;;;;;;;;;19.47;62.09;101491.75;4989572;28;19926;-79
2022/07/22 11:51:56;;;;;;;;;;;;;;;19.48;63.25;101493.47;4998288;28;19932;-81
2022/07/22 11:54:21;;;;;;;;;;;;;;;19.46;63.04;101492.69;5008209;28;19933;-80
2022/07/22 11:56:46;;;;;;;;;;;;;;;19.49;62.92;101488.13;5010951;28;19921;-76
2022/07/22 11:59:13;;;;;;;;;;;;;;;19.44;62.71;101486.63;5009370;28;20320;-77
2022/07/22 12:01:38;;;;;;;;;;;;;;;19.35;62.96;101482.63;5006688;28;19921;-77
2022/07/22 12:04:05;;;;;;;;;;;;;;;19.34;63.16;101475.69;5010318;28;20536;-77
2022/07/22 12:06:34;;;;;;;;;;;;;;;19.34;63.35;101473.03;5020795;28;19921;-77
2022/07/22 12:09:05;;;;;;;;;;;;;;;19.39;62.90;101475.44;5007926;28;19924;-77
2022/07/22 12:11:30;;;;;;;;;;;;;;;19.36;62.24;101479.09;5005752;28;19922;-77
2022/07/22 12:13:56;;;;;;;;;;;;;;;19.36;61.72;101467.69;5010493;28;19926;-77
2022/07/22 12:16:24;;;;;;;;;;;;;;;19.33;61.15;101466.06;4984734;28;19921;-77
2022/07/22 12:18:52;;;;;;;;;;;;;;;19.38;61.74;101465.81;5009596;28;20388;-77
2022/07/22 12:21:18;;;;;;;;;;;;;;;19.40;62.43;101462.19;5009877;28;20295;-77
2022/07/22 12:23:49;;;;;;;;;;;;;;;19.34;64.42;101464.28;5011745;28;20067;-77
2022/07/22 12:26:15;;;;;;;;;;;;;;;19.42;62.74;101462.13;5009154;28;20384;-76
2022/07/22 12:28:40;;;;;;;;;;;;;;;19.47;63.24;101457.50;5006364;28;19922;-80